< < Back
Terminal Aerodrome Forecast


Current Version              Previous Versions:   1  2  3  4  5  6  7  8  9  

Terminal Aerodrome Forecast

180
FTUS42 KFFC 020336 AAB
TAFMCN
TAF AMD
KMCN 020336Z 0204/0224 24003KT P6SM VCSH SCT045 BKN120
     FM020900 26005KT 5SM BR BKN015 BKN050
     FM021400 27008KT P6SM BKN050
     FM021600 26007KT P6SM VCSH BKN050 PROB30 0216/0222 6SM TSRA
      BKN035CB=

Latest METAR

476
SAUS80 KWBC 020300
MTRMCN
METAR KMCN 020253Z AUTO 00000KT 9SM SCT043 SCT070 SCT100 22/20 A3007 RMK
AO2 RAB03E51 SLP180 P0003 60003 T02170200 50015 TSNO


USA.gov is the U.S. government's official web portal to all federal, state and local government web resources and services.